Time;durP1;ratioP1;P1;durP2;ratioP2;P2;SDS_P1;SDS_P2;PMS_P1;PMS_P2;Temp;Humidity;BMP_temperature;BMP_pressure;BME280_temperature;BME280_humidity;BME280_pressure;Samples;Min_cycle;Max_cycle;Signal;HPM_P1;HPM_P2
2023/09/03 00:01:08;;;;;;;0.20;0.20;;;;;;;12.31;100.00;102397.09;5113087;28;20069;-51
2023/09/03 00:03:34;;;;;;;0.20;0.20;;;;;;;12.35;100.00;102396.44;5112805;28;20034;-48
2023/09/03 00:05:59;;;;;;;0.10;0.10;;;;;;;12.34;100.00;102392.06;5112372;28;20114;-50
2023/09/03 00:08:24;;;;;;;0.13;0.13;;;;;;;12.34;100.00;102394.66;5112855;28;20031;-50
2023/09/03 00:10:50;;;;;;;0.10;0.10;;;;;;;12.34;100.00;102392.97;5113153;28;20019;-52
2023/09/03 00:13:16;;;;;;;0.10;0.10;;;;;;;12.32;100.00;102393.72;5112057;28;20031;-51
2023/09/03 00:15:41;;;;;;;0.20;0.20;;;;;;;12.31;100.00;102402.28;5113122;28;20024;-50
2023/09/03 00:18:10;;;;;;;0.10;0.10;;;;;;;12.35;100.00;102391.25;5115132;28;20473;-50
2023/09/03 00:20:35;;;;;;;0.10;0.10;;;;;;;12.44;100.00;102388.22;5116299;28;20130;-50
2023/09/03 00:23:00;;;;;;;0.10;0.10;;;;;;;12.36;100.00;102390.47;5117316;28;20048;-50
2023/09/03 00:25:26;;;;;;;0.10;0.10;;;;;;;12.28;100.00;102390.09;5116832;28;20490;-51
2023/09/03 00:27:51;;;;;;;0.10;0.10;;;;;;;12.37;100.00;102399.09;5116328;28;20099;-51
2023/09/03 00:30:16;;;;;;;0.17;0.17;;;;;;;12.28;100.00;102394.41;5116607;28;20348;-51
2023/09/03 00:32:41;;;;;;;0.20;0.20;;;;;;;12.25;100.00;102400.31;5117054;28;20072;-49
2023/09/03 00:35:07;;;;;;;0.10;0.10;;;;;;;12.23;100.00;102406.22;5116224;28;20471;-51
2023/09/03 00:37:32;;;;;;;0.10;0.10;;;;;;;12.26;100.00;102411.50;5116605;28;20031;-52
2023/09/03 00:39:58;;;;;;;0.20;0.20;;;;;;;12.28;100.00;102402.16;5116236;28;20015;-50
2023/09/03 00:42:23;;;;;;;0.20;0.20;;;;;;;12.31;100.00;102403.16;5116538;28;20024;-50
2023/09/03 00:44:48;;;;;;;0.20;0.20;;;;;;;12.21;100.00;102410.41;5116608;28;20034;-51
2023/09/03 00:47:17;;;;;;;0.20;0.20;;;;;;;12.26;100.00;102411.50;5115895;28;20400;-51
2023/09/03 00:49:43;;;;;;;0.20;0.20;;;;;;;12.27;100.00;102410.72;5116630;28;20425;-50
2023/09/03 00:52:09;;;;;;;0.20;0.20;;;;;;;12.18;100.00;102417.19;5116712;28;20016;-50
2023/09/03 00:54:35;;;;;;;0.10;0.10;;;;;;;12.23;100.00;102417.44;5115404;27;20051;-51
2023/09/03 00:57:01;;;;;;;0.10;0.10;;;;;;;12.16;100.00;102424.00;5116530;28;20024;-50
2023/09/03 00:59:29;;;;;;;0.10;0.10;;;;;;;12.07;100.00;102422.66;5116329;28;20023;-51
2023/09/03 01:01:55;;;;;;;0.20;0.20;;;;;;;12.12;100.00;102427.25;5115865;28;20023;-50
2023/09/03 01:04:20;;;;;;;0.10;0.10;;;;;;;11.98;100.00;102425.66;5116123;28;20031;-50
2023/09/03 01:06:48;;;;;;;0.20;0.20;;;;;;;11.94;100.00;102440.13;5116389;28;20486;-50
2023/09/03 01:09:14;;;;;;;0.20;0.20;;;;;;;11.94;100.00;102436.63;5115135;28;20060;-51
2023/09/03 01:12:07;;;;;;;0.10;0.10;;;;;;;11.94;100.00;102437.53;5116346;28;20110;-50
2023/09/03 01:14:45;;;;;;;0.10;0.10;;;;;;;12.02;100.00;102428.50;5116106;28;20019;-51
2023/09/03 01:17:15;;;;;;;0.10;0.10;;;;;;;12.06;100.00;102416.63;5115543;28;20072;-51
2023/09/03 01:19:52;;;;;;;0.20;0.20;;;;;;;11.94;100.00;102411.72;5116289;28;20107;-50
2023/09/03 01:22:50;;;;;;;0.20;0.20;;;;;;;12.00;100.00;102414.59;5114999;28;20847;-50
2023/09/03 01:25:24;;;;;;;0.10;0.10;;;;;;;11.94;100.00;102422.03;5083962;27;20039;-51
2023/09/03 01:28:02;;;;;;;0.10;0.10;;;;;;;11.88;100.00;102413.97;5115656;28;20024;-51
2023/09/03 01:30:28;;;;;;;0.10;0.10;;;;;;;11.96;100.00;102415.28;5114968;28;20047;-51
2023/09/03 01:32:54;;;;;;;0.20;0.20;;;;;;;11.91;100.00;102421.88;5115903;28;20443;-51
2023/09/03 01:35:22;;;;;;;0.10;0.10;;;;;;;11.91;100.00;102418.41;5115709;28;20039;-50
2023/09/03 01:37:47;;;;;;;0.13;0.13;;;;;;;11.90;100.00;102419.22;5115049;28;20429;-51
2023/09/03 01:40:12;;;;;;;0.20;0.20;;;;;;;11.82;100.00;102422.28;5115511;28;20020;-50
2023/09/03 01:42:38;;;;;;;0.20;0.20;;;;;;;11.85;100.00;102422.47;5115558;28;20019;-51
2023/09/03 01:45:04;;;;;;;0.13;0.13;;;;;;;11.75;100.00;102420.22;5114700;28;20031;-51
2023/09/03 01:47:38;;;;;;;0.20;0.20;;;;;;;11.80;100.00;102413.59;5115229;28;20023;-50
2023/09/03 01:50:18;;;;;;;0.20;0.20;;;;;;;11.78;100.00;102415.22;5115608;28;20050;-50
2023/09/03 01:52:56;;;;;;;0.20;0.20;;;;;;;11.76;100.00;102422.00;5115671;28;20024;-51
2023/09/03 01:55:24;;;;;;;0.10;0.10;;;;;;;11.79;100.00;102410.94;5115008;28;20135;-51
2023/09/03 01:57:53;;;;;;;;;;;;;;;11.87;100.00;102417.38;5115025;28;20076;-50
2023/09/03 02:00:18;;;;;;;0.13;0.13;;;;;;;11.76;100.00;102416.84;5115127;28;19912;-49
2023/09/03 02:02:46;;;;;;;0.10;0.10;;;;;;;11.59;100.00;102412.53;5115426;28;20027;-50
2023/09/03 02:05:13;;;;;;;0.17;0.17;;;;;;;11.38;100.00;102412.31;5114162;28;20497;-47
2023/09/03 02:07:38;;;;;;;0.20;0.20;;;;;;;11.25;100.00;102424.59;5115241;28;20028;-51
2023/09/03 02:10:04;;;;;;;0.20;0.20;;;;;;;11.15;100.00;102430.06;5115053;28;20023;-51
2023/09/03 02:12:29;;;;;;;0.10;0.10;;;;;;;11.06;100.00;102430.47;5114251;28;20016;-50
2023/09/03 02:14:55;;;;;;;0.10;0.10;;;;;;;11.03;100.00;102435.47;5115161;28;20087;-51
2023/09/03 02:17:20;;;;;;;0.10;0.10;;;;;;;10.99;100.00;102438.69;5114865;28;20387;-51
2023/09/03 02:19:50;;;;;;;0.10;0.10;;;;;;;11.06;100.00;102458.84;5114144;28;20102;-51
2023/09/03 02:22:16;;;;;;;0.17;0.17;;;;;;;11.13;100.00;102452.31;5114661;28;20024;-52
2023/09/03 02:24:42;;;;;;;0.20;0.20;;;;;;;11.18;100.00;102446.59;5114884;28;20108;-51
2023/09/03 02:27:08;;;;;;;0.15;0.15;;;;;;;11.16;100.00;102448.19;5114024;28;20081;-52
2023/09/03 02:29:35;;;;;;;0.10;0.10;;;;;;;11.15;100.00;102450.72;5114301;28;20016;-51
2023/09/03 02:32:00;;;;;;;0.10;0.10;;;;;;;11.01;100.00;102462.88;5114784;28;20098;-51
2023/09/03 02:34:25;;;;;;;0.10;0.10;;;;;;;11.12;100.00;102466.03;5113701;28;20102;-51
2023/09/03 02:36:50;;;;;;;0.20;0.20;;;;;;;11.25;100.00;102457.25;5114625;28;20022;-51
2023/09/03 02:39:16;;;;;;;0.20;0.20;;;;;;;11.35;100.00;102460.38;5113937;28;20030;-51
2023/09/03 02:41:41;;;;;;;0.20;0.20;;;;;;;11.41;100.00;102446.91;5113255;28;20028;-50
2023/09/03 02:44:09;;;;;;;0.20;0.20;;;;;;;11.38;100.00;102444.16;5114509;28;20081;-50
2023/09/03 02:46:35;;;;;;;0.20;0.20;;;;;;;11.40;100.00;102442.56;5113535;28;20019;-50
2023/09/03 02:49:01;;;;;;;0.20;0.20;;;;;;;11.43;100.00;102437.56;5114575;28;20027;-50
2023/09/03 02:51:27;;;;;;;0.10;0.10;;;;;;;11.40;100.00;102434.81;5114054;28;20026;-52
2023/09/03 02:53:54;;;;;;;0.10;0.10;;;;;;;11.47;100.00;102433.44;5113576;28;20020;-51
2023/09/03 02:56:21;;;;;;;0.20;0.20;;;;;;;11.52;100.00;102437.16;5113786;28;20039;-51
2023/09/03 02:58:50;;;;;;;0.20;0.20;;;;;;;11.53;100.00;102437.22;5114389;28;20030;-51
2023/09/03 03:01:17;;;;;;;0.20;0.20;;;;;;;11.45;100.00;102446.28;5113388;28;20281;-51
2023/09/03 03:03:43;;;;;;;0.20;0.20;;;;;;;11.22;100.00;102449.34;5114017;28;20490;-50
2023/09/03 03:06:09;;;;;;;0.20;0.20;;;;;;;11.12;100.00;102454.00;5114175;28;20088;-50
2023/09/03 03:08:34;;;;;;;0.10;0.10;;;;;;;11.03;100.00;102459.56;5112972;28;20031;-51
2023/09/03 03:11:17;;;;;;;0.10;0.10;;;;;;;11.07;100.00;102458.03;5114341;28;20103;-51
2023/09/03 03:13:44;;;;;;;0.15;0.15;;;;;;;11.00;100.00;102458.50;5113922;27;20535;-51
2023/09/03 03:16:11;;;;;;;0.20;0.20;;;;;;;11.07;100.00;102455.47;5113202;28;20467;-51
2023/09/03 03:18:38;;;;;;;0.20;0.20;;;;;;;11.15;100.00;102446.41;5114113;28;20031;-50
2023/09/03 03:21:08;;;;;;;0.17;0.17;;;;;;;11.17;100.00;102434.50;5113710;28;20023;-51
2023/09/03 03:23:35;;;;;;;0.10;0.10;;;;;;;11.25;100.00;102426.28;5112875;28;20120;-49
2023/09/03 03:26:01;;;;;;;0.20;0.20;;;;;;;11.29;100.00;102429.09;5113955;28;20178;-50
2023/09/03 03:28:31;;;;;;;0.20;0.20;;;;;;;11.22;100.00;102416.69;5113574;28;20063;-52
2023/09/03 03:30:58;;;;;;;0.20;0.20;;;;;;;11.31;100.00;102409.41;5113032;28;20057;-51
2023/09/03 03:33:24;;;;;;;0.20;0.20;;;;;;;11.32;100.00;102397.38;5113409;28;20026;-50
2023/09/03 03:35:49;;;;;;;0.20;0.20;;;;;;;11.10;100.00;102413.44;5112762;28;20040;-51
2023/09/03 03:38:14;;;;;;;0.10;0.10;;;;;;;11.02;100.00;102423.38;5113199;28;20034;-51
2023/09/03 03:40:39;;;;;;;0.20;0.20;;;;;;;11.03;100.00;102438.06;5113518;28;20479;-51
2023/09/03 03:43:05;;;;;;;0.20;0.20;;;;;;;10.92;100.00;102446.91;5112887;28;20020;-50
2023/09/03 03:45:32;;;;;;;0.20;0.20;;;;;;;10.87;100.00;102450.13;5113094;28;20023;-51
2023/09/03 03:47:58;;;;;;;0.20;0.20;;;;;;;10.92;100.00;102446.91;5113379;28;20038;-50
2023/09/03 03:50:23;;;;;;;0.20;0.20;;;;;;;10.89;100.00;102451.91;5112478;28;20024;-52
2023/09/03 03:52:48;;;;;;;0.13;0.13;;;;;;;10.97;100.00;102450.63;5113309;28;20084;-51
2023/09/03 03:55:14;;;;;;;0.20;0.20;;;;;;;11.01;100.00;102442.22;5113053;28;20039;-51
2023/09/03 03:57:41;;;;;;;0.17;0.17;;;;;;;11.04;100.00;102448.44;5112639;28;20482;-51
2023/09/03 04:00:07;;;;;;;0.20;0.20;;;;;;;10.89;100.00;102455.34;5113294;28;20463;-50
2023/09/03 04:02:32;;;;;;;0.20;0.20;;;;;;;10.80;100.00;102460.91;5112978;28;20080;-52
2023/09/03 04:04:57;;;;;;;0.15;0.15;;;;;;;10.85;100.00;102467.19;5112281;28;20485;-51
2023/09/03 04:07:23;;;;;;;0.20;0.20;;;;;;;10.69;100.00;102468.06;5113198;28;20110;-51
2023/09/03 04:09:48;;;;;;;0.20;0.20;;;;;;;10.73;100.00;102473.38;5113412;28;20060;-50
2023/09/03 04:12:13;;;;;;;0.20;0.20;;;;;;;10.73;100.00;102471.69;5112015;28;20028;-51
2023/09/03 04:14:38;;;;;;;0.10;0.10;;;;;;;10.69;100.00;102468.06;5113225;28;20012;-50
2023/09/03 04:17:04;;;;;;;0.20;0.20;;;;;;;10.62;100.00;102472.78;5113125;28;20406;-51
2023/09/03 04:19:29;;;;;;;0.20;0.20;;;;;;;10.71;100.00;102475.88;5112134;28;20148;-48
2023/09/03 04:21:54;;;;;;;0.10;0.10;;;;;;;10.71;100.00;102481.03;5113341;28;20016;-51
2023/09/03 04:24:20;;;;;;;0.10;0.10;;;;;;;10.73;100.00;102482.03;5112891;28;20471;-51
2023/09/03 04:26:45;;;;;;;0.20;0.20;;;;;;;10.76;100.00;102473.56;5112462;28;20390;-51
2023/09/03 04:29:11;;;;;;;0.10;0.10;;;;;;;10.73;100.00;102474.28;5113016;28;20100;-51
2023/09/03 04:31:36;;;;;;;0.20;0.20;;;;;;;10.81;100.00;102470.41;5112897;28;20069;-51
2023/09/03 04:34:02;;;;;;;0.20;0.20;;;;;;;10.92;100.00;102472.69;5112160;28;20065;-49
2023/09/03 04:36:28;;;;;;;0.20;0.20;;;;;;;10.93;100.00;102477.06;5112813;28;20023;-50
2023/09/03 04:38:53;;;;;;;0.20;0.20;;;;;;;11.02;100.00;102475.84;5112823;28;20092;-51
2023/09/03 04:41:18;;;;;;;0.20;0.20;;;;;;;11.04;100.00;102478.53;5111716;28;20485;-50
2023/09/03 04:43:44;;;;;;;0.20;0.20;;;;;;;11.02;100.00;102474.97;5112794;28;20026;-56
2023/09/03 04:46:10;;;;;;;0.20;0.20;;;;;;;11.08;100.00;102475.31;5112130;28;20026;-51
2023/09/03 04:48:35;;;;;;;0.20;0.20;;;;;;;11.14;100.00;102480.81;5112390;28;20031;-51
2023/09/03 04:51:05;;;;;;;0.20;0.20;;;;;;;11.15;100.00;102492.88;5112613;28;20070;-48
2023/09/03 04:53:31;;;;;;;0.20;0.20;;;;;;;11.06;100.00;102491.50;5111883;28;20046;-51
2023/09/03 04:55:57;;;;;;;0.10;0.10;;;;;;;10.93;100.00;102503.72;5112566;28;20043;-51
2023/09/03 04:58:22;;;;;;;0.10;0.10;;;;;;;10.90;100.00;102515.56;5112524;28;20527;-51
2023/09/03 05:00:47;;;;;;;0.20;0.20;;;;;;;10.84;100.00;102519.59;5111959;28;20032;-50
2023/09/03 05:03:13;;;;;;;0.20;0.20;;;;;;;10.92;100.00;102519.13;5112835;28;20027;-50
2023/09/03 05:05:42;;;;;;;0.10;0.10;;;;;;;10.95;100.00;102527.03;5116704;28;20058;-51
2023/09/03 05:08:08;;;;;;;0.20;0.20;;;;;;;10.96;100.00;102518.50;5115469;28;20428;-50
2023/09/03 05:10:33;;;;;;;0.20;0.20;;;;;;;10.95;100.00;102514.13;5116228;28;20019;-51
2023/09/03 05:12:59;;;;;;;0.20;0.20;;;;;;;10.92;100.00;102519.13;5116359;28;20027;-51
2023/09/03 05:15:24;;;;;;;0.20;0.20;;;;;;;10.86;100.00;102520.56;5115163;28;20027;-51
2023/09/03 05:17:49;;;;;;;0.20;0.20;;;;;;;10.87;100.00;102526.59;5116170;28;20047;-51
2023/09/03 05:20:15;;;;;;;0.20;0.20;;;;;;;10.91;100.00;102527.66;5116017;27;20027;-47
2023/09/03 05:22:40;;;;;;;0.20;0.20;;;;;;;10.97;100.00;102530.59;5115551;28;20020;-51
2023/09/03 05:25:06;;;;;;;0.20;0.20;;;;;;;11.03;100.00;102533.50;5115907;28;20383;-47
2023/09/03 05:27:31;;;;;;;0.20;0.20;;;;;;;11.13;100.00;102540.94;5115461;28;20027;-51
2023/09/03 05:29:58;;;;;;;0.20;0.20;;;;;;;11.20;100.00;102535.31;5115142;28;20038;-49
2023/09/03 05:32:23;;;;;;;0.20;0.20;;;;;;;11.26;100.00;102528.69;5115444;28;20157;-51
2023/09/03 05:34:49;;;;;;;0.20;0.20;;;;;;;11.29;100.00;102537.50;5115984;28;20118;-50
2023/09/03 05:37:15;;;;;;;0.20;0.20;;;;;;;11.31;100.00;102540.16;5114944;28;20034;-50
2023/09/03 05:39:40;;;;;;;0.20;0.20;;;;;;;11.35;100.00;102545.56;5115778;28;20024;-50
2023/09/03 05:42:05;;;;;;;0.15;0.15;;;;;;;11.39;100.00;102549.22;5115700;28;20042;-49
2023/09/03 05:44:31;;;;;;;0.20;0.20;;;;;;;11.46;100.00;102540.97;5114556;28;20533;-51
2023/09/03 05:46:56;;;;;;;0.20;0.20;;;;;;;11.53;100.00;102537.94;5115505;28;20023;-51
2023/09/03 05:49:22;;;;;;;0.20;0.20;;;;;;;11.60;100.00;102536.53;5114759;28;20052;-51
2023/09/03 05:51:47;;;;;;;0.20;0.20;;;;;;;11.64;100.00;102535.03;5115695;28;20050;-51
2023/09/03 05:54:12;;;;;;;0.17;0.17;;;;;;;11.68;100.00;102540.44;5115040;28;20043;-51
2023/09/03 05:56:39;;;;;;;0.20;0.20;;;;;;;11.75;100.00;102551.97;5114640;28;20604;-51
2023/09/03 05:59:10;;;;;;;0.20;0.20;;;;;;;11.80;100.00;102547.94;5115255;28;20035;-50
2023/09/03 06:01:35;;;;;;;0.10;0.10;;;;;;;11.86;100.00;102552.50;5114994;28;20080;-51
2023/09/03 06:04:06;;;;;;;0.10;0.10;;;;;;;11.94;100.00;102550.31;5114617;27;20234;-51
2023/09/03 06:06:38;;;;;;;0.10;0.10;;;;;;;12.00;100.00;102561.03;5115029;28;20202;-50
2023/09/03 06:09:05;;;;;;;0.10;0.10;;;;;;;12.05;100.00;102562.13;5115180;28;20098;-50
2023/09/03 06:11:31;;;;;;;0.20;0.20;;;;;;;12.12;100.00;102568.50;5114028;28;20070;-49
2023/09/03 06:13:57;;;;;;;0.15;0.15;;;;;;;12.15;100.00;102574.72;5114960;28;20090;-51
2023/09/03 06:16:23;;;;;;;0.20;0.20;;;;;;;12.21;100.00;102583.59;5114570;28;20433;-50
2023/09/03 06:18:48;;;;;;;0.20;0.20;;;;;;;12.23;100.00;102574.25;5114313;28;20019;-50
2023/09/03 06:21:13;;;;;;;0.10;0.10;;;;;;;12.27;100.00;102581.34;5114766;28;20367;-50
2023/09/03 06:23:39;;;;;;;0.13;0.13;;;;;;;12.29;100.00;102590.03;5114729;28;20074;-52
2023/09/03 06:26:04;;;;;;;0.10;0.10;;;;;;;12.31;100.00;102597.06;5114045;28;20023;-50
2023/09/03 06:28:29;;;;;;;0.10;0.10;;;;;;;12.40;100.00;102601.81;5114365;28;20353;-51
2023/09/03 06:30:59;;;;;;;0.15;0.15;;;;;;;12.42;100.00;102602.78;5114724;28;20027;-54
2023/09/03 06:33:24;;;;;;;0.10;0.10;;;;;;;12.46;100.00;102606.38;5113617;28;20481;-52
2023/09/03 06:35:50;;;;;;;0.20;0.20;;;;;;;12.47;100.00;102608.16;5114590;28;20028;-50
2023/09/03 06:38:15;;;;;;;0.10;0.10;;;;;;;12.51;100.00;102610.09;5114456;28;20027;-50
2023/09/03 06:40:40;;;;;;;0.10;0.10;;;;;;;12.56;100.00;102625.84;5113930;28;20048;-50
2023/09/03 06:43:06;;;;;;;0.20;0.20;;;;;;;12.59;100.00;102620.81;5114451;28;20424;-46
2023/09/03 06:45:34;;;;;;;0.10;0.10;;;;;;;12.64;100.00;102624.53;5113946;28;20543;-50
2023/09/03 06:47:59;;;;;;;0.10;0.10;;;;;;;12.72;100.00;102628.41;5114680;28;20027;-50
2023/09/03 06:50:25;;;;;;;0.10;0.10;;;;;;;12.79;100.00;102629.59;5114264;28;20512;-52
2023/09/03 06:52:50;;;;;;;0.10;0.10;;;;;;;12.85;100.00;102635.06;5113620;28;20489;-47
2023/09/03 06:55:15;;;;;;;0.15;0.15;;;;;;;12.92;100.00;102631.94;5113932;28;20051;-50
2023/09/03 06:57:41;;;;;;;0.20;0.20;;;;;;;13.02;100.00;102633.28;5114432;28;20051;-51
2023/09/03 07:00:07;;;;;;;0.10;0.10;;;;;;;13.06;100.00;102645.56;5113801;28;20470;-51
2023/09/03 07:02:32;;;;;;;0.10;0.10;;;;;;;13.17;100.00;102641.78;5114144;28;20083;-49
2023/09/03 07:04:59;;;;;;;0.20;0.20;;;;;;;13.21;100.00;102640.25;5113968;28;20039;-51
2023/09/03 07:07:25;;;;;;;0.20;0.20;;;;;;;13.29;100.00;102645.78;5113179;28;20469;-50
2023/09/03 07:09:51;;;;;;;0.10;0.10;;;;;;;13.39;100.00;102648.03;5114131;28;20028;-51
2023/09/03 07:12:16;;;;;;;0.10;0.10;;;;;;;13.40;100.00;102642.03;5113661;28;20526;-46
2023/09/03 07:14:41;;;;;;;0.20;0.20;;;;;;;13.45;100.00;102648.31;5113441;28;20099;-52
2023/09/03 07:17:07;;;;;;;0.10;0.10;;;;;;;13.56;100.00;102653.09;5114284;28;20412;-51
2023/09/03 07:19:32;;;;;;;0.10;0.10;;;;;;;13.59;100.00;102650.66;5113525;28;20383;-48
2023/09/03 07:21:57;;;;;;;0.10;0.10;;;;;;;13.67;100.00;102649.28;5112942;28;20114;-47
2023/09/03 07:24:23;;;;;;;0.20;0.20;;;;;;;13.75;100.00;102650.53;5113462;28;20030;-52
2023/09/03 07:26:48;;;;;;;0.10;0.10;;;;;;;13.88;100.00;102651.06;5113140;28;20084;-48
2023/09/03 07:29:14;;;;;;;0.10;0.10;;;;;;;14.05;100.00;102655.31;5112472;28;20023;-47
2023/09/03 07:31:43;;;;;;;0.20;0.20;;;;;;;14.16;100.00;102666.16;5113836;27;20023;-47
2023/09/03 07:34:10;;;;;;;0.10;0.10;;;;;;;14.21;100.00;102663.78;5113559;28;20035;-49
2023/09/03 07:36:35;;;;;;;0.20;0.20;;;;;;;14.36;100.00;102651.47;5112507;28;20028;-48
2023/09/03 07:39:01;;;;;;;0.10;0.10;;;;;;;14.42;100.00;102667.31;5113613;28;20026;-47
2023/09/03 07:41:26;;;;;;;0.10;0.10;;;;;;;14.49;100.00;102676.22;5113089;28;20039;-48
2023/09/03 07:43:52;;;;;;;0.20;0.20;;;;;;;14.65;100.00;102678.69;5112889;28;20451;-47
2023/09/03 07:46:18;;;;;;;0.10;0.10;;;;;;;14.80;100.00;102681.03;5113080;28;20069;-49
2023/09/03 07:48:43;;;;;;;0.10;0.10;;;;;;;15.00;100.00;102686.16;5113650;28;20028;-47
2023/09/03 07:51:09;;;;;;;0.10;0.10;;;;;;;15.12;100.00;102680.59;5112620;28;20023;-49
2023/09/03 07:53:34;;;;;;;0.10;0.10;;;;;;;15.23;100.00;102687.06;5113026;28;20027;-46
2023/09/03 07:55:59;;;;;;;0.10;0.10;;;;;;;15.27;100.00;102688.09;5112427;28;20044;-48
2023/09/03 07:58:25;;;;;;;0.10;0.10;;;;;;;15.37;100.00;102687.63;5112906;28;20031;-51
2023/09/03 08:00:51;;;;;;;0.10;0.10;;;;;;;15.46;100.00;102681.91;5113372;28;20095;-48
2023/09/03 08:03:17;;;;;;;0.10;0.10;;;;;;;15.53;100.00;102677.81;5112465;28;20031;-46
2023/09/03 08:05:42;;;;;;;0.10;0.10;;;;;;;15.72;100.00;102676.81;5113339;28;20509;-47
2023/09/03 08:08:07;;;;;;;0.10;0.10;;;;;;;15.82;100.00;102678.97;5113145;28;20023;-47
2023/09/03 08:10:33;;;;;;;0.10;0.10;;;;;;;15.91;100.00;102673.25;5111760;28;20149;-48
2023/09/03 08:12:58;;;;;;;0.10;0.10;;;;;;;16.11;100.00;102672.25;5113238;28;20375;-49
2023/09/03 08:15:23;;;;;;;0.10;0.10;;;;;;;16.19;100.00;102666.41;5112777;28;20026;-48
2023/09/03 08:17:49;;;;;;;0.10;0.10;;;;;;;16.35;100.00;102667.84;5112370;28;20035;-46
2023/09/03 08:20:14;;;;;;;0.10;0.10;;;;;;;16.49;100.00;102668.31;5112748;28;20111;-49
2023/09/03 08:22:39;;;;;;;0.10;0.10;;;;;;;16.56;100.00;102668.56;5113133;28;20105;-47
2023/09/03 08:25:05;;;;;;;0.10;0.10;;;;;;;16.70;100.00;102674.25;5111996;28;20063;-48
2023/09/03 08:27:31;;;;;;;0.10;0.10;;;;;;;16.87;100.00;102671.31;5112644;28;20031;-50
2023/09/03 08:29:56;;;;;;;0.10;0.10;;;;;;;16.98;100.00;102670.00;5113008;28;20016;-50
2023/09/03 08:32:21;;;;;;;0.10;0.10;;;;;;;17.16;100.00;102676.63;5112054;28;20042;-46
2023/09/03 08:34:47;;;;;;;0.10;0.10;;;;;;;17.16;100.00;102671.41;5112977;28;20020;-49
2023/09/03 08:37:13;;;;;;;0.10;0.10;;;;;;;17.29;100.00;102673.56;5112551;28;20095;-47
2023/09/03 08:39:38;;;;;;;0.10;0.10;;;;;;;17.40;100.00;102674.78;5114896;28;20092;-47
2023/09/03 08:42:04;;;;;;;0.10;0.10;;;;;;;17.46;100.00;102683.63;5117098;28;20027;-47
2023/09/03 08:44:41;;;;;;;0.10;0.10;;;;;;;17.81;100.00;102692.50;5116553;28;20055;-50
2023/09/03 08:47:10;;;;;;;0.00;0.00;;;;;;;17.98;100.00;102692.13;5116184;28;20038;-49
2023/09/03 08:49:39;;;;;;;0.00;0.00;;;;;;;18.13;100.00;102695.19;5116373;28;20016;-50
2023/09/03 08:52:05;;;;;;;0.00;0.00;;;;;;;18.22;100.00;102699.78;5116630;28;20023;-47
2023/09/03 08:54:30;;;;;;;0.00;0.00;;;;;;;18.46;100.00;102698.66;5115322;28;20077;-47
2023/09/03 08:56:57;;;;;;;0.08;0.08;;;;;;;18.47;100.00;102696.06;5116595;28;20031;-48
2023/09/03 08:59:23;;;;;;;0.00;0.00;;;;;;;18.55;100.00;102691.06;5115687;28;20036;-46
2023/09/03 09:01:53;;;;;;;0.10;0.10;;;;;;;18.65;100.00;102695.69;5116847;28;20020;-46
2023/09/03 09:04:19;;;;;;;0.00;0.00;;;;;;;18.76;100.00;102698.56;5115945;28;20463;-48
2023/09/03 09:06:46;;;;;;;0.00;0.00;;;;;;;19.16;100.00;102698.69;5115685;28;20024;-51
2023/09/03 09:09:13;;;;;;;0.00;0.00;;;;;;;19.07;100.00;102695.00;5116134;28;20016;-47
2023/09/03 09:11:40;;;;;;;;;;;;;;;19.31;100.00;102692.94;5116836;28;20030;-50
2023/09/03 09:14:20;;;;;;;0.10;0.10;;;;;;;19.49;100.00;102688.09;5115536;28;19999;-51
2023/09/03 09:16:45;;;;;;;0.03;0.03;;;;;;;19.62;100.00;102693.63;5116305;28;20028;-50
2023/09/03 09:19:15;;;;;;;0.10;0.10;;;;;;;20.09;100.00;102696.38;5116266;28;20026;-50
2023/09/03 09:21:41;;;;;;;0.00;0.00;;;;;;;20.31;100.00;102702.88;5115424;28;20034;-47
2023/09/03 09:24:06;;;;;;;0.00;0.00;;;;;;;20.40;100.00;102703.06;5116090;28;20110;-47
2023/09/03 09:26:32;;;;;;;0.00;0.00;;;;;;;20.43;100.00;102706.59;5115715;28;20402;-47
2023/09/03 09:29:02;;;;;;;0.03;0.03;;;;;;;20.90;100.00;102698.69;5115476;28;20069;-47
2023/09/03 09:31:34;;;;;;;0.05;0.05;;;;;;;20.97;100.00;102700.56;5115523;28;20467;-47
2023/09/03 09:34:01;;;;;;;0.00;0.00;;;;;;;21.51;99.07;102697.81;5115752;28;20429;-50
2023/09/03 09:36:27;;;;;;;0.00;0.00;;;;;;;21.59;96.43;102693.63;5114911;28;20028;-46
2023/09/03 09:39:05;;;;;;;0.00;0.00;;;;;;;21.66;96.45;102695.44;5115939;28;20376;-46
2023/09/03 09:41:30;;;;;;;0.00;0.00;;;;;;;21.95;88.30;102689.69;5114760;28;20043;-47
2023/09/03 09:43:55;;;;;;;0.00;0.00;;;;;;;21.92;84.46;102696.63;5115668;28;20055;-51
2023/09/03 09:46:28;;;;;;;0.00;0.00;;;;;;;22.16;83.75;102696.03;5115428;28;20463;-50
2023/09/03 09:49:03;;;;;;;0.00;0.00;;;;;;;22.43;84.99;102691.97;5114284;28;20047;-50
2023/09/03 09:51:30;;;;;;;0.00;0.00;;;;;;;22.47;72.03;102683.25;5115441;28;20054;-47
2023/09/03 09:53:56;;;;;;;0.00;0.00;;;;;;;22.67;73.05;102683.41;5115414;28;20419;-51
2023/09/03 09:56:32;;;;;;;0.00;0.00;;;;;;;22.99;69.84;102683.63;5114254;28;20047;-50
2023/09/03 09:58:58;;;;;;;0.00;0.00;;;;;;;23.17;75.82;102682.06;5115340;28;20087;-52
2023/09/03 10:01:26;;;;;;;0.00;0.00;;;;;;;23.30;76.72;102688.25;5115179;28;20111;-46
2023/09/03 10:03:51;;;;;;;0.00;0.00;;;;;;;23.58;72.13;102684.03;5114418;28;20401;-49
2023/09/03 10:06:19;;;;;;;0.00;0.00;;;;;;;23.74;74.40;102684.09;5114845;28;20069;-51
2023/09/03 10:08:46;;;;;;;0.00;0.00;;;;;;;23.86;71.08;102684.16;5115248;28;20065;-50
2023/09/03 10:11:12;;;;;;;0.00;0.00;;;;;;;24.39;67.75;102684.25;5114222;28;20019;-49
2023/09/03 10:13:39;;;;;;;0.00;0.00;;;;;;;24.78;67.99;102687.84;5115057;28;20035;-47
2023/09/03 10:16:07;;;;;;;0.00;0.00;;;;;;;25.22;65.43;102693.94;5115316;28;20015;-47
2023/09/03 10:18:38;;;;;;;0.00;0.00;;;;;;;24.71;67.54;102693.97;5113858;28;20470;-47
2023/09/03 10:21:06;;;;;;;0.00;0.00;;;;;;;25.42;61.31;102683.31;5115160;27;20065;-51
2023/09/03 10:23:39;;;;;;;0.00;0.00;;;;;;;25.12;61.18;102682.50;5114640;28;20023;-50
2023/09/03 10:26:06;;;;;;;0.00;0.00;;;;;;;25.39;59.60;102684.22;5114847;28;20019;-50
2023/09/03 10:28:37;;;;;;;0.00;0.00;;;;;;;26.18;59.28;102683.84;5114606;28;20027;-52
2023/09/03 10:31:03;;;;;;;0.00;0.00;;;;;;;25.93;56.25;102681.34;5113856;28;20463;-46
2023/09/03 10:33:29;;;;;;;0.00;0.00;;;;;;;26.56;54.77;102685.34;5114637;28;20362;-52
2023/09/03 10:36:17;;;;;;;0.00;0.00;;;;;;;27.59;62.17;102693.16;5114657;28;20072;-52
2023/09/03 10:38:44;;;;;;;0.00;0.00;;;;;;;27.89;51.28;102683.94;5113820;28;20084;-48
2023/09/03 10:41:16;;;;;;;0.00;0.00;;;;;;;28.08;51.25;102691.63;5114743;28;20072;-51
2023/09/03 10:43:41;;;;;;;0.00;0.00;;;;;;;27.58;50.55;102688.78;5114624;28;20060;-52
2023/09/03 10:46:07;;;;;;;0.00;0.00;;;;;;;27.76;48.42;102690.31;5113734;28;20024;-52
2023/09/03 10:48:36;;;;;;;0.10;0.00;;;;;;;28.06;47.95;102698.75;5114237;28;20028;-49
2023/09/03 10:51:02;;;;;;;0.00;0.00;;;;;;;27.63;47.47;102694.00;5114299;28;20417;-52
2023/09/03 10:53:38;;;;;;;0.00;0.00;;;;;;;28.13;51.28;102691.56;5113521;28;20026;-47
2023/09/03 10:56:13;;;;;;;0.00;0.00;;;;;;;27.80;51.75;102694.66;5114120;28;20048;-49
2023/09/03 10:58:55;;;;;;;0.00;0.00;;;;;;;28.21;51.91;102695.88;5114231;28;20034;-47
2023/09/03 11:01:31;;;;;;;0.00;0.00;;;;;;;28.64;49.44;102688.97;5113109;28;20012;-50
2023/09/03 11:03:59;;;;;;;0.00;0.00;;;;;;;28.36;46.56;102701.81;5114276;28;20027;-52
2023/09/03 11:06:25;;;;;;;0.00;0.00;;;;;;;28.21;46.38;102690.56;5113146;28;20024;-48
2023/09/03 11:09:12;;;;;;;0.00;0.00;;;;;;;28.10;46.98;102687.19;5114179;28;20507;-52
2023/09/03 11:11:38;;;;;;;0.00;0.00;;;;;;;27.31;44.05;102680.22;5113935;28;20036;-49
2023/09/03 11:14:10;;;;;;;0.00;0.00;;;;;;;26.64;49.12;102685.28;5113122;28;20028;-52
2023/09/03 11:16:37;;;;;;;0.00;0.00;;;;;;;27.01;48.31;102690.25;5113530;28;20416;-51
2023/09/03 11:19:04;;;;;;;0.00;0.00;;;;;;;27.54;48.15;102698.53;5114039;28;20039;-52